Time;durP1;ratioP1;P1;durP2;ratioP2;P2;SDS_P1;SDS_P2;PMS_P1;PMS_P2;Temp;Humidity;BMP_temperature;BMP_pressure;BME280_temperature;BME280_humidity;BME280_pressure;Samples;Min_cycle;Max_cycle;Signal;HPM_P1;HPM_P2
2021/11/06 00:00:01;;;;;;;;;;;5.00;99.90;;;;;;5056132;28;19928;-77
2021/11/06 00:02:28;;;;;;;;;;;5.00;99.90;;;;;;5055521;28;19956;-76
2021/11/06 00:04:55;;;;;;;;;;;5.00;99.90;;;;;;5055052;28;19925;-76
2021/11/06 00:07:21;;;;;;;;;;;5.00;99.90;;;;;;5057123;28;20015;-75
2021/11/06 00:09:48;;;;;;;;;;;5.00;99.90;;;;;;5054154;28;20385;-75
2021/11/06 00:12:15;;;;;;;;;;;4.90;99.90;;;;;;5051629;28;20008;-75
2021/11/06 00:14:42;;;;;;;;;;;4.90;99.90;;;;;;5051522;28;19964;-75
2021/11/06 00:17:10;;;;;;;;;;;4.90;99.90;;;;;;5056524;28;20011;-75
2021/11/06 00:19:37;;;;;;;;;;;4.90;99.90;;;;;;5054078;28;19925;-78
2021/11/06 00:22:04;;;;;;;;;;;4.90;99.90;;;;;;5058263;28;20278;-75
2021/11/06 00:24:31;;;;;;;;;;;4.90;99.90;;;;;;5053171;28;19925;-75
2021/11/06 00:26:58;;;;;;;;;;;4.90;99.90;;;;;;5056544;28;19931;-76
2021/11/06 00:29:24;;;;;;;;;;;4.90;99.90;;;;;;5052179;28;19964;-75
2021/11/06 00:31:51;;;;;;;;;;;4.90;99.90;;;;;;5054729;28;19925;-75
2021/11/06 00:34:19;;;;;;;;;;;4.90;99.90;;;;;;5051411;28;19931;-75
2021/11/06 00:36:46;;;;;;;;;;;4.90;99.90;;;;;;5052085;28;20398;-75
2021/11/06 00:39:12;;;;;;;;;;;4.90;99.90;;;;;;5049313;28;19933;-75
2021/11/06 00:41:39;;;;;;;;;;;4.90;99.90;;;;;;5052020;28;19925;-75
2021/11/06 00:44:06;;;;;;;;;;;4.90;99.90;;;;;;5044461;28;19933;-75
2021/11/06 00:46:32;;;;;;;;;;;4.90;99.90;;;;;;5050627;28;20019;-75
2021/11/06 00:48:59;;;;;;;;;;;4.90;99.90;;;;;;5049923;28;19968;-75
2021/11/06 00:51:27;;;;;;;;;;;4.90;99.90;;;;;;5050841;28;19931;-75
2021/11/06 00:53:54;;;;;;;;;;;4.90;99.90;;;;;;5047385;28;19928;-75
2021/11/06 00:56:20;;;;;;;;;;;4.90;99.90;;;;;;5049395;28;20438;-75
2021/11/06 00:58:47;;;;;;;;;;;4.90;99.90;;;;;;5049572;28;20288;-75
2021/11/06 01:01:14;;;;;;;;;;;4.90;99.90;;;;;;5047370;28;20589;-75
2021/11/06 01:03:40;;;;;;;;;;;4.90;99.90;;;;;;5046653;28;19935;-75
2021/11/06 01:06:07;;;;;;;;;;;4.80;99.90;;;;;;5045205;28;19925;-75
2021/11/06 01:08:35;;;;;;;;;;;4.90;99.90;;;;;;5049836;28;20296;-75
2021/11/06 01:11:02;;;;;;;;;;;4.80;99.90;;;;;;5049175;28;19925;-75
2021/11/06 01:13:28;;;;;;;;;;;4.80;99.90;;;;;;5050625;28;19932;-74
2021/11/06 01:15:55;;;;;;;;;;;4.80;99.90;;;;;;5049695;28;19924;-75
2021/11/06 01:18:22;;;;;;;;;;;4.80;99.90;;;;;;5047961;28;19933;-75
2021/11/06 01:20:49;;;;;;;;;;;4.80;99.90;;;;;;5047475;28;19925;-74
2021/11/06 01:23:16;;;;;;;;;;;4.70;99.90;;;;;;5045206;28;20457;-76
2021/11/06 01:25:44;;;;;;;;;;;4.70;99.90;;;;;;5047205;28;20468;-74
2021/11/06 01:28:10;;;;;;;;;;;4.70;99.90;;;;;;5047456;28;19935;-75
2021/11/06 01:30:37;;;;;;;;;;;4.60;99.90;;;;;;5048685;28;20351;-75
2021/11/06 01:33:04;;;;;;;;;;;4.60;99.90;;;;;;5048657;28;20011;-75
2021/11/06 01:35:30;;;;;;;;;;;4.60;99.90;;;;;;5052995;28;20047;-75
2021/11/06 01:37:59;;;;;;;;;;;4.60;99.90;;;;;;5052063;28;19935;-75
2021/11/06 01:40:26;;;;;;;;;;;4.60;99.90;;;;;;5051496;28;19925;-75
2021/11/06 01:42:54;;;;;;;;;;;4.60;99.90;;;;;;5053759;28;20011;-75
2021/11/06 01:45:22;;;;;;;;;;;4.50;99.90;;;;;;5051397;28;19933;-75
2021/11/06 01:47:49;;;;;;;;;;;4.50;99.90;;;;;;5052163;28;19935;-76
2021/11/06 01:50:16;;;;;;;;;;;4.50;99.90;;;;;;5051629;28;19937;-75
2021/11/06 01:52:43;;;;;;;;;;;4.50;99.90;;;;;;5046167;28;19939;-74
2021/11/06 01:55:10;;;;;;;;;;;4.50;99.90;;;;;;5045724;28;19931;-75
2021/11/06 01:57:36;;;;;;;;;;;4.60;99.90;;;;;;5047635;28;20036;-75
2021/11/06 02:00:06;;;;;;;;;;;4.60;99.90;;;;;;5052741;28;19931;-75
2021/11/06 02:02:33;;;;;;;;;;;4.60;99.90;;;;;;5046453;28;20015;-75
2021/11/06 02:05:00;;;;;;;;;;;4.50;99.90;;;;;;5053204;28;19995;-75
2021/11/06 02:07:26;;;;;;;;;;;4.50;99.90;;;;;;5055279;28;20336;-75
2021/11/06 02:09:53;;;;;;;;;;;4.50;99.90;;;;;;5055364;28;20003;-75
2021/11/06 02:12:19;;;;;;;;;;;4.50;99.90;;;;;;5059099;28;19925;-76
2021/11/06 02:14:46;;;;;;;;;;;4.50;99.90;;;;;;5055661;28;20308;-75
2021/11/06 02:17:14;;;;;;;;;;;4.50;99.90;;;;;;5055621;28;20280;-75
2021/11/06 02:19:41;;;;;;;;;;;4.50;99.90;;;;;;5052031;28;19925;-75
2021/11/06 02:22:09;;;;;;;;;;;4.50;99.90;;;;;;5055608;28;19932;-76
2021/11/06 02:24:36;;;;;;;;;;;4.50;99.90;;;;;;5056912;28;19933;-76
2021/11/06 02:27:02;;;;;;;;;;;4.40;99.90;;;;;;5052969;28;20371;-76
2021/11/06 02:29:29;;;;;;;;;;;4.40;99.90;;;;;;5051172;28;19975;-75
2021/11/06 02:31:56;;;;;;;;;;;4.40;99.90;;;;;;5055312;28;19940;-75
2021/11/06 02:34:23;;;;;;;;;;;4.40;99.90;;;;;;5048163;28;20381;-75
2021/11/06 02:36:49;;;;;;;;;;;4.40;99.90;;;;;;5052666;28;20355;-76
2021/11/06 02:39:17;;;;;;;;;;;4.30;99.90;;;;;;5053234;28;20363;-76
2021/11/06 02:41:44;;;;;;;;;;;4.30;99.90;;;;;;5056634;28;20380;-76
2021/11/06 02:44:12;;;;;;;;;;;4.30;99.90;;;;;;5049672;28;19944;-76
2021/11/06 02:46:39;;;;;;;;;;;4.20;99.90;;;;;;5059154;28;19932;-77
2021/11/06 02:49:06;;;;;;;;;;;4.20;99.90;;;;;;5055443;28;20007;-76
2021/11/06 02:51:33;;;;;;;;;;;4.20;99.90;;;;;;5056311;28;19925;-77
2021/11/06 02:54:00;;;;;;;;;;;4.20;99.90;;;;;;5049804;28;19925;-76
2021/11/06 02:56:29;;;;;;;;;;;4.20;99.90;;;;;;5055180;28;20395;-76
2021/11/06 02:58:56;;;;;;;;;;;4.20;99.90;;;;;;5045135;28;19928;-76
2021/11/06 03:01:23;;;;;;;;;;;4.10;99.90;;;;;;5053751;28;20312;-76
2021/11/06 03:03:50;;;;;;;;;;;4.10;99.90;;;;;;5051989;28;19924;-76
2021/11/06 03:06:16;;;;;;;;;;;4.10;99.90;;;;;;5050710;28;19931;-77
2021/11/06 03:08:44;;;;;;;;;;;4.10;99.90;;;;;;5053872;28;19968;-76
2021/11/06 03:11:11;;;;;;;;;;;4.10;99.90;;;;;;5051628;28;19950;-77
2021/11/06 03:13:40;;;;;;;;;;;4.10;99.90;;;;;;5055281;28;20020;-76
2021/11/06 03:16:08;;;;;;;;;;;4.10;99.90;;;;;;5053355;28;19931;-76
2021/11/06 03:18:34;;;;;;;;;;;4.10;99.90;;;;;;5052512;28;20369;-76
2021/11/06 03:21:01;;;;;;;;;;;4.10;99.90;;;;;;5057462;28;19932;-76
2021/11/06 03:23:28;;;;;;;;;;;4.10;99.90;;;;;;5053596;28;20681;-76
2021/11/06 03:25:55;;;;;;;;;;;4.00;99.90;;;;;;5054601;28;19940;-76
2021/11/06 03:28:21;;;;;;;;;;;4.10;99.90;;;;;;5045846;28;19932;-76
2021/11/06 03:30:50;;;;;;;;;;;4.10;99.90;;;;;;5051120;28;19925;-76
2021/11/06 03:33:16;;;;;;;;;;;4.10;99.90;;;;;;5052788;28;19933;-76
2021/11/06 03:35:43;;;;;;;;;;;4.10;99.90;;;;;;5052507;28;19925;-76
2021/11/06 03:38:10;;;;;;;;;;;4.10;99.90;;;;;;5051410;28;19931;-76
2021/11/06 03:40:37;;;;;;;;;;;4.10;99.90;;;;;;5052449;28;20012;-76
2021/11/06 03:43:04;;;;;;;;;;;4.10;99.90;;;;;;5052551;28;19932;-76
2021/11/06 03:45:31;;;;;;;;;;;4.10;99.90;;;;;;5056589;28;20012;-76
2021/11/06 03:47:59;;;;;;;;;;;4.10;99.90;;;;;;5057830;28;19964;-76
2021/11/06 03:50:26;;;;;;;;;;;4.10;99.90;;;;;;5051555;28;20023;-76
2021/11/06 03:52:53;;;;;;;;;;;4.10;99.90;;;;;;5053662;28;19931;-76
2021/11/06 03:55:19;;;;;;;;;;;4.20;99.90;;;;;;5049753;28;19931;-76
2021/11/06 03:57:46;;;;;;;;;;;4.20;99.90;;;;;;5051476;28;19968;-76
2021/11/06 04:00:14;;;;;;;;;;;4.20;99.90;;;;;;5047603;28;19924;-76
2021/11/06 04:02:40;;;;;;;;;;;4.30;99.90;;;;;;5047887;28;19935;-76
2021/11/06 04:05:09;;;;;;;;;;;4.30;99.90;;;;;;5051677;28;19925;-76
2021/11/06 04:07:35;;;;;;;;;;;4.30;99.90;;;;;;5054973;28;19924;-76
2021/11/06 04:10:02;;;;;;;;;;;4.30;99.90;;;;;;5054158;28;20016;-76
2021/11/06 04:12:29;;;;;;;;;;;4.30;99.90;;;;;;5054494;28;20015;-75
2021/11/06 04:14:55;;;;;;;;;;;4.40;99.90;;;;;;5052468;28;19933;-76
2021/11/06 04:17:22;;;;;;;;;;;4.40;99.90;;;;;;5056573;28;19929;-76
2021/11/06 04:19:49;;;;;;;;;;;4.40;99.90;;;;;;5053017;28;19925;-75
2021/11/06 04:22:17;;;;;;;;;;;4.50;99.90;;;;;;5049097;28;20028;-76
2021/11/06 04:24:43;;;;;;;;;;;4.50;99.90;;;;;;5043881;28;19925;-76
2021/11/06 04:27:10;;;;;;;;;;;4.60;99.90;;;;;;5045025;28;19931;-77
2021/11/06 04:29:37;;;;;;;;;;;4.60;99.90;;;;;;5048767;28;19931;-76
2021/11/06 04:32:04;;;;;;;;;;;4.60;99.90;;;;;;5049273;28;19933;-76
2021/11/06 04:34:31;;;;;;;;;;;4.70;99.90;;;;;;5052239;28;19924;-76
2021/11/06 04:36:57;;;;;;;;;;;4.70;99.90;;;;;;5049781;28;19935;-76
2021/11/06 04:39:26;;;;;;;;;;;4.70;99.90;;;;;;5050532;28;20003;-75
2021/11/06 04:41:52;;;;;;;;;;;4.80;99.90;;;;;;5046788;28;19929;-75
2021/11/06 04:44:19;;;;;;;;;;;4.80;99.90;;;;;;5045027;28;19932;-75
2021/11/06 04:46:45;;;;;;;;;;;4.80;99.90;;;;;;5044987;28;20396;-76
2021/11/06 04:49:12;;;;;;;;;;;4.80;99.90;;;;;;5045262;28;19932;-76
2021/11/06 04:51:39;;;;;;;;;;;4.80;99.90;;;;;;5049208;28;19931;-76
2021/11/06 04:54:05;;;;;;;;;;;4.90;99.90;;;;;;5049295;28;20027;-76
2021/11/06 04:56:33;;;;;;;;;;;4.80;99.90;;;;;;5047777;28;19929;-76
2021/11/06 04:59:00;;;;;;;;;;;4.90;99.90;;;;;;5048712;28;19925;-76
2021/11/06 05:01:27;;;;;;;;;;;4.90;99.90;;;;;;5044772;28;19933;-76
2021/11/06 05:03:54;;;;;;;;;;;4.90;99.90;;;;;;5047983;28;19987;-76
2021/11/06 05:06:21;;;;;;;;;;;4.90;99.90;;;;;;5048608;28;20448;-76
2021/11/06 05:08:47;;;;;;;;;;;4.90;99.90;;;;;;5045810;28;20352;-75
2021/11/06 05:11:14;;;;;;;;;;;5.00;99.90;;;;;;5051601;28;20419;-76
2021/11/06 05:13:42;;;;;;;;;;;5.00;99.90;;;;;;5048761;28;19931;-76
2021/11/06 05:16:09;;;;;;;;;;;5.00;99.90;;;;;;5051338;28;19924;-75
2021/11/06 05:18:36;;;;;;;;;;;4.90;99.90;;;;;;5044804;28;20296;-76
2021/11/06 05:21:03;;;;;;;;;;;4.90;99.90;;;;;;5048636;28;19964;-76
2021/11/06 05:23:29;;;;;;;;;;;4.90;99.90;;;;;;5047853;28;20008;-76
2021/11/06 05:25:56;;;;;;;;;;;5.00;99.90;;;;;;5050101;28;19929;-76
2021/11/06 05:28:23;;;;;;;;;;;4.90;99.90;;;;;;5043106;28;20592;-76
2021/11/06 05:30:51;;;;;;;;;;;4.90;99.90;;;;;;5044974;28;19946;-75
2021/11/06 05:33:18;;;;;;;;;;;4.90;99.90;;;;;;5046209;28;20019;-76
2021/11/06 05:35:44;;;;;;;;;;;5.00;99.90;;;;;;5045224;28;19925;-75
2021/11/06 05:38:11;;;;;;;;;;;5.00;99.90;;;;;;5040900;28;19925;-76
2021/11/06 05:40:37;;;;;;;;;;;5.00;99.90;;;;;;5048299;28;20035;-76
2021/11/06 05:43:04;;;;;;;;;;;5.10;99.90;;;;;;5047293;28;20308;-76
2021/11/06 05:45:31;;;;;;;;;;;5.10;99.90;;;;;;5045430;28;20067;-76
2021/11/06 05:47:59;;;;;;;;;;;5.20;99.90;;;;;;5047521;28;19929;-76
2021/11/06 05:50:26;;;;;;;;;;;5.20;99.90;;;;;;5049786;28;20296;-75
2021/11/06 05:52:52;;;;;;;;;;;5.20;99.90;;;;;;5045912;28;20019;-75
2021/11/06 05:55:19;;;;;;;;;;;5.20;99.90;;;;;;5046871;28;19924;-77
2021/11/06 05:57:46;;;;;;;;;;;5.30;99.90;;;;;;5050441;28;19931;-76
2021/11/06 06:00:14;;;;;;;;;;;5.30;99.90;;;;;;5049492;28;19979;-76
2021/11/06 06:02:40;;;;;;;;;;;5.30;99.90;;;;;;5052314;28;20022;-76
2021/11/06 06:05:09;;;;;;;;;;;5.40;99.90;;;;;;5047742;28;19958;-76
2021/11/06 06:07:36;;;;;;;;;;;5.40;99.90;;;;;;5049034;28;19932;-76
2021/11/06 06:10:04;;;;;;;;;;;5.40;99.90;;;;;;5041944;28;20008;-75
2021/11/06 06:12:30;;;;;;;;;;;5.40;99.90;;;;;;5047926;28;19947;-75
2021/11/06 06:14:57;;;;;;;;;;;5.30;99.90;;;;;;5043785;28;19968;-75
2021/11/06 06:17:24;;;;;;;;;;;5.40;99.90;;;;;;5045465;28;20458;-76
2021/11/06 06:19:50;;;;;;;;;;;5.40;99.90;;;;;;5046634;28;20011;-75
2021/11/06 06:22:18;;;;;;;;;;;5.40;99.90;;;;;;5045652;28;19925;-75
2021/11/06 06:24:45;;;;;;;;;;;5.40;99.90;;;;;;5043623;28;19955;-75
2021/11/06 06:27:12;;;;;;;;;;;5.30;99.90;;;;;;5044506;28;19925;-74
2021/11/06 06:29:38;;;;;;;;;;;5.40;99.90;;;;;;5044635;28;19925;-75
2021/11/06 06:32:05;;;;;;;;;;;5.40;99.90;;;;;;5047768;28;19925;-74
2021/11/06 06:34:32;;;;;;;;;;;5.40;99.90;;;;;;5042324;28;19933;-75
2021/11/06 06:36:58;;;;;;;;;;;5.40;99.90;;;;;;5047208;28;19931;-75
2021/11/06 06:39:26;;;;;;;;;;;5.40;99.90;;;;;;5045545;28;20020;-76
2021/11/06 06:41:53;;;;;;;;;;;5.40;99.90;;;;;;5043976;28;19925;-76
2021/11/06 06:44:20;;;;;;;;;;;5.50;99.90;;;;;;5048645;28;20015;-76
2021/11/06 06:46:46;;;;;;;;;;;5.40;99.90;;;;;;5057111;28;19996;-76
2021/11/06 06:49:13;;;;;;;;;;;5.60;99.90;;;;;;5054384;28;19925;-76
2021/11/06 06:51:40;;;;;;;;;;;5.40;99.90;;;;;;5049189;28;19932;-76
2021/11/06 06:54:06;;;;;;;;;;;5.40;99.90;;;;;;5056087;28;19929;-76
2021/11/06 06:56:35;;;;;;;;;;;5.50;99.90;;;;;;5053253;28;19968;-77
2021/11/06 06:59:01;;;;;;;;;;;5.50;99.90;;;;;;5054461;28;20015;-76
2021/11/06 07:01:28;;;;;;;;;;;5.60;99.90;;;;;;5051540;28;19929;-76
2021/11/06 07:03:55;;;;;;;;;;;5.60;99.90;;;;;;5051792;28;20113;-75
2021/11/06 07:06:21;;;;;;;;;;;5.60;99.90;;;;;;5052487;28;19935;-76
2021/11/06 07:08:48;;;;;;;;;;;5.60;99.90;;;;;;5051744;28;19932;-76
2021/11/06 07:11:15;;;;;;;;;;;5.70;99.90;;;;;;5041751;28;20579;-76
2021/11/06 07:13:44;;;;;;;;;;;5.60;99.90;;;;;;5047820;28;19932;-76
2021/11/06 07:16:11;;;;;;;;;;;5.70;99.90;;;;;;5049836;28;19986;-76
2021/11/06 07:18:38;;;;;;;;;;;5.80;99.90;;;;;;5053489;28;19931;-76
2021/11/06 07:21:05;;;;;;;;;;;5.90;99.90;;;;;;5038649;23;20016;-76
2021/11/06 07:23:32;;;;;;;;;;;6.00;99.90;;;;;;5026942;28;19972;-76
2021/11/06 07:26:01;;;;;;;;;;;6.00;99.90;;;;;;5002265;28;19940;-77
2021/11/06 07:28:28;;;;;;;;;;;6.00;99.90;;;;;;5004150;28;19929;-78
2021/11/06 07:30:56;;;;;;;;;;;6.00;99.90;;;;;;4998849;28;19934;-79
2021/11/06 07:33:22;;;;;;;;;;;6.00;99.90;;;;;;5002607;28;19933;-75
2021/11/06 07:35:49;;;;;;;;;;;6.00;99.90;;;;;;4998866;28;20009;-76
2021/11/06 07:38:16;;;;;;;;;;;6.00;99.90;;;;;;4984123;28;19933;-76
2021/11/06 07:40:43;;;;;;;;;;;6.00;99.90;;;;;;5006294;28;20303;-76
2021/11/06 07:43:10;;;;;;;;;;;6.10;99.90;;;;;;5004022;28;20024;-74
2021/11/06 07:45:37;;;;;;;;;;;6.10;99.90;;;;;;5006063;28;20386;-77
2021/11/06 07:48:05;;;;;;;;;;;6.10;99.90;;;;;;5005117;28;19926;-76
2021/11/06 07:50:32;;;;;;;;;;;6.10;99.90;;;;;;4998523;28;20627;-76
2021/11/06 07:52:58;;;;;;;;;;;6.10;99.90;;;;;;5002237;28;20374;-75
2021/11/06 07:55:25;;;;;;;;;;;6.20;99.90;;;;;;5002479;28;19934;-74
2021/11/06 07:57:52;;;;;;;;;;;6.20;99.90;;;;;;4989214;28;19933;-76
2021/11/06 08:00:19;;;;;;;;;;;6.20;99.90;;;;;;4990068;28;20278;-76
2021/11/06 08:02:46;;;;;;;;;;;6.20;99.90;;;;;;4992616;28;19933;-76
2021/11/06 08:05:15;;;;;;;;;;;6.30;99.90;;;;;;4991202;28;19929;-77
2021/11/06 08:07:41;;;;;;;;;;;6.30;99.90;;;;;;4993829;28;19934;-77
2021/11/06 08:10:09;;;;;;;;;;;6.30;99.90;;;;;;4987293;28;19936;-77
2021/11/06 08:12:37;;;;;;;;;;;6.40;99.90;;;;;;4993993;28;19933;-76
2021/11/06 08:15:04;;;;;;;;;;;6.50;99.90;;;;;;4997259;28;20374;-76
2021/11/06 08:17:30;;;;;;;;;;;6.50;99.90;;;;;;5000043;28;19959;-76
2021/11/06 08:19:57;;;;;;;;;;;6.50;99.90;;;;;;4995484;28;19934;-77
2021/11/06 08:22:25;;;;;;;;;;;6.60;99.90;;;;;;4999770;28;19933;-75
2021/11/06 08:24:52;;;;;;;;;;;6.70;99.90;;;;;;4997239;28;19932;-77
2021/11/06 08:27:19;;;;;;;;;;;6.70;99.90;;;;;;5003562;28;19933;-76
2021/11/06 08:29:45;;;;;;;;;;;6.80;99.90;;;;;;4990508;28;19972;-77
2021/11/06 08:32:12;;;;;;;;;;;6.90;99.90;;;;;;4988232;28;19933;-76
2021/11/06 08:34:38;;;;;;;;;;;7.00;99.90;;;;;;4990381;28;19940;-76
2021/11/06 08:37:05;;;;;;;;;;;7.00;99.90;;;;;;4993696;28;19925;-76
2021/11/06 08:39:33;;;;;;;;;;;7.10;99.90;;;;;;4996415;28;20376;-76
2021/11/06 08:42:00;;;;;;;;;;;7.20;99.90;;;;;;4994683;28;19926;-76
2021/11/06 08:44:27;;;;;;;;;;;7.30;99.90;;;;;;4999482;28;19933;-78
2021/11/06 08:46:54;;;;;;;;;;;7.30;99.90;;;;;;4998146;28;20347;-78
2021/11/06 08:49:21;;;;;;;;;;;7.50;99.90;;;;;;4996390;28;19932;-79
2021/11/06 08:51:48;;;;;;;;;;;7.60;99.90;;;;;;5000239;28;19925;-77
2021/11/06 08:54:16;;;;;;;;;;;7.80;99.90;;;;;;4988645;28;20016;-76
2021/11/06 08:56:44;;;;;;;;;;;7.80;99.90;;;;;;4991289;28;19956;-77
2021/11/06 08:59:11;;;;;;;;;;;7.90;99.90;;;;;;4988701;28;19941;-75
2021/11/06 09:01:38;;;;;;;;;;;7.90;99.90;;;;;;4987503;28;19929;-76
2021/11/06 09:04:05;;;;;;;;;;;7.90;99.90;;;;;;4988339;28;19925;-77
2021/11/06 09:06:33;;;;;;;;;;;7.90;99.90;;;;;;4989619;28;20861;-77
2021/11/06 09:09:00;;;;;;;;;;;7.90;99.90;;;;;;4988264;28;19934;-77
2021/11/06 09:11:27;;;;;;;;;;;8.00;99.90;;;;;;4986555;28;20402;-77
2021/11/06 09:13:56;;;;;;;;;;;8.00;99.90;;;;;;4989017;28;20323;-77
2021/11/06 09:16:24;;;;;;;;;;;8.00;99.90;;;;;;4991729;28;19933;-76
2021/11/06 09:18:51;;;;;;;;;;;8.00;99.90;;;;;;4989797;28;22212;-76
2021/11/06 09:21:20;;;;;;;;;;;8.00;99.90;;;;;;4986408;28;19980;-77
2021/11/06 09:23:48;;;;;;;;;;;8.10;99.90;;;;;;4985904;28;19926;-76
2021/11/06 09:26:15;;;;;;;;;;;8.20;99.90;;;;;;4985800;28;19948;-76
2021/11/06 09:28:42;;;;;;;;;;;8.10;99.90;;;;;;4995189;28;19929;-77
2021/11/06 09:31:12;;;;;;;;;;;8.20;99.90;;;;;;4987791;28;19926;-77
2021/11/06 09:33:38;;;;;;;;;;;8.20;99.90;;;;;;4988630;28;20659;-76
2021/11/06 09:36:07;;;;;;;;;;;8.30;99.90;;;;;;4988238;28;22820;-77
2021/11/06 09:38:34;;;;;;;;;;;8.30;99.90;;;;;;4989816;28;19930;-78
2021/11/06 09:41:01;;;;;;;;;;;8.40;99.90;;;;;;4989479;28;20040;-76
2021/11/06 09:43:28;;;;;;;;;;;8.50;99.90;;;;;;4989239;28;19996;-76
2021/11/06 09:45:56;;;;;;;;;;;8.60;99.90;;;;;;4989264;28;19942;-77
2021/11/06 09:48:24;;;;;;;;;;;8.70;99.90;;;;;;4990604;28;20009;-77
2021/11/06 09:50:51;;;;;;;;;;;8.70;99.90;;;;;;4989687;28;20394;-77
2021/11/06 09:53:18;;;;;;;;;;;8.80;99.90;;;;;;4989825;28;19934;-77
2021/11/06 09:55:45;;;;;;;;;;;8.90;99.90;;;;;;4989804;28;19933;-77
2021/11/06 09:58:12;;;;;;;;;;;8.90;99.90;;;;;;4989161;28;20024;-77
2021/11/06 10:00:39;;;;;;;;;;;8.90;99.90;;;;;;4990267;28;20861;-77
2021/11/06 10:03:06;;;;;;;;;;;9.00;99.90;;;;;;4996184;28;19925;-78
2021/11/06 10:05:47;;;;;;;;;;;9.10;99.90;;;;;;5001817;28;19953;-75
2021/11/06 10:08:21;;;;;;;;;;;9.10;99.90;;;;;;4997886;28;19933;-76
2021/11/06 10:10:49;;;;;;;;;;;9.10;99.90;;;;;;4994089;28;19926;-77
2021/11/06 10:13:16;;;;;;;;;;;9.20;99.90;;;;;;4997009;28;20013;-77
2021/11/06 10:15:44;;;;;;;;;;;9.30;99.90;;;;;;5003313;28;19925;-75
2021/11/06 10:18:14;;;;;;;;;;;9.30;99.90;;;;;;5002947;28;19933;-75
2021/11/06 10:20:41;;;;;;;;;;;9.30;99.90;;;;;;4999961;28;19926;-76
2021/11/06 10:23:09;;;;;;;;;;;9.30;99.90;;;;;;4996645;28;20297;-77
2021/11/06 10:25:37;;;;;;;;;;;9.30;99.90;;;;;;4999944;28;19960;-77
2021/11/06 10:28:05;;;;;;;;;;;9.40;99.90;;;;;;4998689;28;20528;-77
2021/11/06 10:30:33;;;;;;;;;;;9.50;99.90;;;;;;4994023;28;19930;-77
2021/11/06 10:33:01;;;;;;;;;;;9.40;99.90;;;;;;5001135;28;19929;-76
2021/11/06 10:35:28;;;;;;;;;;;9.40;99.90;;;;;;4995897;28;19929;-76
2021/11/06 10:37:58;;;;;;;;;;;9.40;99.90;;;;;;5002361;28;19992;-77
2021/11/06 10:40:30;;;;;;;;;;;9.50;99.90;;;;;;5001927;28;19997;-77
2021/11/06 10:42:57;;;;;;;;;;;9.50;99.90;;;;;;5003637;28;19933;-77
2021/11/06 10:45:26;;;;;;;;;;;9.50;99.90;;;;;;5001662;28;19932;-77
2021/11/06 10:47:54;;;;;;;;;;;9.50;99.90;;;;;;5002323;28;19944;-75
2021/11/06 10:50:39;;;;;;;;;;;9.40;99.90;;;;;;5004572;28;19932;-76
2021/11/06 10:53:06;;;;;;;;;;;9.40;99.90;;;;;;4999644;28;20325;-75
2021/11/06 10:55:35;;;;;;;;;;;9.40;99.90;;;;;;4998412;28;19936;-75
2021/11/06 10:58:03;;;;;;;;;;;9.50;99.90;;;;;;5001708;28;19930;-75
2021/11/06 11:00:29;;;;;;;;;;;9.50;99.90;;;;;;5001616;28;19960;-76
2021/11/06 11:02:56;;;;;;;;;;;9.50;99.90;;;;;;4997645;28;19933;-76
2021/11/06 11:05:33;;;;;;;;;;;9.50;99.90;;;;;;4986332;28;20517;-75
2021/11/06 11:08:04;;;;;;;;;;;9.50;99.90;;;;;;4990292;28;20033;-75
2021/11/06 11:10:30;;;;;;;;;;;9.50;99.90;;;;;;4988231;28;20309;-75
2021/11/06 11:13:15;;;;;;;;;;;9.40;99.90;;;;;;4987721;28;20326;-76
2021/11/06 11:15:44;;;;;;;;;;;9.40;99.90;;;;;;4986908;28;19933;-75
2021/11/06 11:18:29;;;;;;;;;;;9.40;99.90;;;;;;4987707;28;19952;-76
2021/11/06 11:21:06;;;;;;;;;;;9.30;99.90;;;;;;4985811;28;19963;-76
2021/11/06 11:23:33;;;;;;;;;;;9.30;99.90;;;;;;4995731;28;20024;-76
2021/11/06 11:26:00;;;;;;;;;;;9.10;99.90;;;;;;4990543;28;19956;-76
2021/11/06 11:28:27;;;;;;;;;;;9.00;99.90;;;;;;4986769;28;19940;-77
2021/11/06 11:30:56;;;;;;;;;;;8.90;99.90;;;;;;4986269;28;19980;-77
2021/11/06 11:33:22;;;;;;;;;;;9.00;99.90;;;;;;4989829;28;19933;-74
2021/11/06 11:35:50;;;;;;;;;;;9.00;99.90;;;;;;4987044;28;19944;-75
2021/11/06 11:38:17;;;;;;;;;;;9.00;99.90;;;;;;4989337;28;22622;-75
2021/11/06 11:40:48;;;;;;;;;;;9.00;99.90;;;;;;4990695;28;19965;-77
2021/11/06 11:43:19;;;;;;;;;;;9.00;99.90;;;;;;4991634;28;19940;-75
2021/11/06 11:45:48;;;;;;;;;;;9.10;99.90;;;;;;4987990;28;19925;-77
2021/11/06 11:48:20;;;;;;;;;;;9.20;99.90;;;;;;4988075;28;19968;-76
2021/11/06 11:50:48;;;;;;;;;;;9.10;99.90;;;;;;4987292;28;20378;-76
2021/11/06 11:53:22;;;;;;;;;;;9.20;99.90;;;;;;4991570;28;19952;-75
2021/11/06 11:55:51;;;;;;;;;;;9.10;99.90;;;;;;4987255;28;22223;-75
2021/11/06 11:58:20;;;;;;;;;;;9.20;99.90;;;;;;4987502;28;19932;-75
2021/11/06 12:00:48;;;;;;;;;;;9.10;99.90;;;;;;5002516;28;19925;-76
2021/11/06 12:03:27;;;;;;;;;;;9.20;99.90;;;;;;5009204;28;19933;-76
2021/11/06 12:05:54;;;;;;;;;;;9.20;99.90;;;;;;4996669;28;20303;-76
2021/11/06 12:08:33;;;;;;;;;;;9.10;99.90;;;;;;4995115;28;19932;-76
2021/11/06 12:11:12;;;;;;;;;;;9.20;99.90;;;;;;4999409;28;20394;-77
2021/11/06 12:13:40;;;;;;;;;;;9.20;99.90;;;;;;4994194;28;20404;-76
2021/11/06 12:16:08;;;;;;;;;;;9.30;99.90;;;;;;4996710;28;20418;-76
2021/11/06 12:18:50;;;;;;;;;;;9.30;99.90;;;;;;4997997;28;19930;-77
2021/11/06 12:21:28;;;;;;;;;;;9.20;99.90;;;;;;4993155;28;19933;-76
2021/11/06 12:23:55;;;;;;;;;;;9.40;99.90;;;;;;5006252;28;20674;-76
2021/11/06 12:26:23;;;;;;;;;;;9.50;99.90;;;;;;4999219;28;20370;-76
2021/11/06 12:28:50;;;;;;;;;;;9.50;99.90;;;;;;5001483;28;19929;-77
2021/11/06 12:31:30;;;;;;;;;;;9.50;99.90;;;;;;5013501;28;19932;-75
2021/11/06 12:33:59;;;;;;;;;;;9.50;99.90;;;;;;5005404;28;19930;-75
2021/11/06 12:36:27;;;;;;;;;;;9.50;99.90;;;;;;4993996;28;20354;-76
2021/11/06 12:38:56;;;;;;;;;;;9.50;99.90;;;;;;4994707;28;20016;-76
2021/11/06 12:41:27;;;;;;;;;;;9.50;99.90;;;;;;4995466;28;19925;-77
2021/11/06 12:43:54;;;;;;;;;;;9.50;99.90;;;;;;4997600;28;19932;-75
2021/11/06 12:46:23;;;;;;;;;;;9.50;99.90;;;;;;4999584;28;19936;-76
2021/11/06 12:48:50;;;;;;;;;;;9.50;99.90;;;;;;5002753;28;20350;-76
2021/11/06 12:51:18;;;;;;;;;;;9.50;99.90;;;;;;4994107;28;19940;-76
2021/11/06 12:53:47;;;;;;;;;;;9.50;99.90;;;;;;4997543;28;20429;-76
2021/11/06 12:56:15;;;;;;;;;;;9.50;99.90;;;;;;5000722;28;19933;-76
2021/11/06 12:58:42;;;;;;;;;;;9.50;99.90;;;;;;5006155;28;19931;-76
2021/11/06 13:01:18;;;;;;;;;;;9.40;99.90;;;;;;4999564;28;19984;-76
2021/11/06 13:03:45;;;;;;;;;;;9.40;99.90;;;;;;4996812;28;19925;-75
2021/11/06 13:06:21;;;;;;;;;;;9.30;99.90;;;;;;4997741;28;19926;-77
2021/11/06 13:09:21;;;;;;;;;;;9.30;99.90;;;;;;4994994;28;19932;-75
2021/11/06 13:11:49;;;;;;;;;;;9.30;99.90;;;;;;4998983;28;20364;-75
2021/11/06 13:14:32;;;;;;;;;;;9.40;99.90;;;;;;4996655;28;20410;-76
2021/11/06 13:17:01;;;;;;;;;;;9.40;99.90;;;;;;4994654;28;19932;-77
2021/11/06 13:19:41;;;;;;;;;;;9.40;99.90;;;;;;4997389;28;19936;-75
2021/11/06 13:22:09;;;;;;;;;;;9.40;99.90;;;;;;4998007;28;20409;-77
2021/11/06 13:24:53;;;;;;;;;;;9.40;99.90;;;;;;4999983;28;19933;-76
2021/11/06 13:27:36;;;;;;;;;;;9.40;99.90;;;;;;4992068;28;19926;-75
2021/11/06 13:30:33;;;;;;;;;;;9.40;99.90;;;;;;4994036;28;19925;-76
2021/11/06 13:33:01;;;;;;;;;;;9.50;99.90;;;;;;4996031;28;19934;-76
2021/11/06 13:35:31;;;;;;;;;;;9.50;99.90;;;;;;4997391;28;19925;-76
2021/11/06 13:38:12;;;;;;;;;;;9.50;99.90;;;;;;4997785;28;20012;-76
2021/11/06 13:40:42;;;;;;;;;;;9.60;99.90;;;;;;4993155;28;19935;-75
2021/11/06 13:43:12;;;;;;;;;;;9.60;99.90;;;;;;5003671;28;20011;-76
2021/11/06 13:45:39;;;;;;;;;;;9.60;99.90;;;;;;4993466;28;19932;-76
2021/11/06 13:48:06;;;;;;;;;;;9.60;99.90;;;;;;4998209;28;19926;-76
2021/11/06 13:50:33;;;;;;;;;;;9.50;99.90;;;;;;4997667;28;19933;-77
2021/11/06 13:53:04;;;;;;;;;;;9.60;99.90;;;;;;4997641;28;20423;-75
2021/11/06 13:55:32;;;;;;;;;;;9.60;99.90;;;;;;4995402;28;19964;-77
2021/11/06 13:58:00;;;;;;;;;;;9.50;99.90;;;;;;5002024;28;19926;-77
2021/11/06 14:00:26;;;;;;;;;;;9.50;99.90;;;;;;5005701;28;20012;-76
2021/11/06 14:02:53;;;;;;;;;;;9.50;99.90;;;;;;5005301;28;19939;-76
2021/11/06 14:05:22;;;;;;;;;;;9.60;99.90;;;;;;5002240;28;19926;-76
2021/11/06 14:07:50;;;;;;;;;;;9.60;99.90;;;;;;5002926;28;19936;-75
2021/11/06 14:10:20;;;;;;;;;;;9.60;99.90;;;;;;4999780;28;19987;-75
2021/11/06 14:12:49;;;;;;;;;;;9.70;99.90;;;;;;5003643;28;19926;-75
2021/11/06 14:15:26;;;;;;;;;;;9.70;99.90;;;;;;4999837;28;20020;-75
2021/11/06 14:17:53;;;;;;;;;;;9.70;99.90;;;;;;5001024;28;19936;-76
2021/11/06 14:20:30;;;;;;;;;;;9.70;99.90;;;;;;5002837;28;19933;-77
2021/11/06 14:22:57;;;;;;;;;;;9.70;99.90;;;;;;5001076;28;19933;-76
2021/11/06 14:25:24;;;;;;;;;;;9.60;99.90;;;;;;5004585;28;19926;-75
2021/11/06 14:28:02;;;;;;;;;;;9.70;99.90;;;;;;4999696;28;19925;-76
2021/11/06 14:30:30;;;;;;;;;;;9.70;99.90;;;;;;5002142;28;20117;-75
2021/11/06 14:32:57;;;;;;;;;;;9.70;99.90;;;;;;4998943;28;19932;-76
2021/11/06 14:35:28;;;;;;;;;;;9.70;99.90;;;;;;5000677;28;19932;-75